createdAt,value
2024-02-19T00:01:20.067Z,0.40
2024-02-19T00:03:22.235Z,0.30
2024-02-19T00:05:25.125Z,0.30
2024-02-19T00:07:26.935Z,0.30
2024-02-19T00:09:28.457Z,0.30
2024-02-19T00:11:30.982Z,0.20
2024-02-19T00:13:32.693Z,0.30
2024-02-19T00:15:34.232Z,0.30
2024-02-19T00:17:35.934Z,0.30
2024-02-19T00:19:38.253Z,0.30
2024-02-19T00:21:40.242Z,0.30
2024-02-19T00:23:41.728Z,0.35
2024-02-19T00:25:43.417Z,0.30
2024-02-19T00:27:44.924Z,0.35
2024-02-19T00:29:46.417Z,0.30
2024-02-19T00:31:49.139Z,0.30
2024-02-19T00:33:50.935Z,0.30
2024-02-19T00:35:52.708Z,0.30
2024-02-19T00:37:54.169Z,0.40
2024-02-19T00:39:55.650Z,0.40
2024-02-19T00:41:58.941Z,0.20
2024-02-19T00:44:00.473Z,0.30
2024-02-19T00:46:03.377Z,0.30
2024-02-19T00:48:05.163Z,0.38
2024-02-19T00:50:06.940Z,0.40
2024-02-19T00:52:08.415Z,0.30
2024-02-19T00:54:09.934Z,0.30
2024-02-19T00:56:11.645Z,0.30
2024-02-19T00:58:13.248Z,0.30
2024-02-19T01:00:14.987Z,0.40
2024-02-19T01:02:16.529Z,0.30
2024-02-19T01:04:18.061Z,0.40
2024-02-19T01:06:19.588Z,0.40
2024-02-19T01:08:21.425Z,0.30
2024-02-19T01:10:22.930Z,0.32
2024-02-19T01:12:25.344Z,0.30
2024-02-19T01:14:26.984Z,0.30
2024-02-19T01:16:28.416Z,0.40
2024-02-19T01:18:30.089Z,0.30
2024-02-19T01:20:31.908Z,0.30
2024-02-19T01:22:33.350Z,0.40
2024-02-19T01:24:34.929Z,0.35
2024-02-19T01:26:36.684Z,0.30
2024-02-19T01:28:38.833Z,0.30
2024-02-19T01:30:40.419Z,0.30
2024-02-19T01:32:41.994Z,0.30
2024-02-19T01:34:44.235Z,0.50
2024-02-19T01:36:47.468Z,0.40
2024-02-19T01:38:48.944Z,0.40
2024-02-19T01:40:50.586Z,0.40
2024-02-19T01:43:05.309Z,0.40
2024-02-19T01:45:08.338Z,0.38
2024-02-19T01:47:10.850Z,0.30
2024-02-19T01:49:12.816Z,0.30
2024-02-19T01:51:17.316Z,0.40
2024-02-19T01:53:18.986Z,0.50
2024-02-19T01:55:21.352Z,0.40
2024-02-19T01:57:22.920Z,0.50
2024-02-19T01:59:24.801Z,0.40
2024-02-19T02:01:26.791Z,0.30
2024-02-19T02:03:29.817Z,0.40
2024-02-19T02:05:31.668Z,0.40
2024-02-19T02:07:33.064Z,0.40
2024-02-19T02:09:35.122Z,0.50
2024-02-19T02:11:36.644Z,0.45
2024-02-19T02:13:38.240Z,0.40
2024-02-19T02:15:39.853Z,0.38
2024-02-19T02:17:44.937Z,0.30
2024-02-19T02:19:46.760Z,0.30
2024-02-19T02:21:48.325Z,0.40
2024-02-19T02:23:52.199Z,0.30
2024-02-19T02:25:56.585Z,0.30
2024-02-19T02:27:58.593Z,0.40
2024-02-19T02:30:00.351Z,0.40
2024-02-19T02:32:02.036Z,0.43
2024-02-19T02:34:03.682Z,0.40
2024-02-19T02:36:06.750Z,0.35
2024-02-19T02:38:08.251Z,0.30
2024-02-19T02:40:10.037Z,0.40
2024-02-19T02:42:11.582Z,0.30
2024-02-19T02:44:13.310Z,0.40
2024-02-19T02:46:15.098Z,0.30
2024-02-19T02:48:16.757Z,0.40
2024-02-19T02:50:18.289Z,0.22
2024-02-19T02:52:19.942Z,0.30
2024-02-19T02:54:21.616Z,0.30
2024-02-19T02:56:23.131Z,0.30
2024-02-19T02:58:24.771Z,0.30
2024-02-19T03:00:27.190Z,0.40
2024-02-19T03:02:28.826Z,0.30
2024-02-19T03:04:30.367Z,0.30
2024-02-19T03:06:31.951Z,0.30
2024-02-19T03:08:33.404Z,0.40
2024-02-19T03:10:35.258Z,0.30
2024-02-19T03:12:36.755Z,0.28
2024-02-19T03:14:38.350Z,0.45
2024-02-19T03:16:40.465Z,0.40
2024-02-19T03:18:44.628Z,0.30
2024-02-19T03:20:46.473Z,0.35
2024-02-19T03:22:47.943Z,0.30
2024-02-19T03:24:49.842Z,0.40
2024-02-19T03:26:51.466Z,0.30
2024-02-19T03:28:52.877Z,0.30
2024-02-19T03:30:54.339Z,0.40
2024-02-19T03:32:55.977Z,0.30
2024-02-19T03:34:58.954Z,0.30
2024-02-19T03:37:00.762Z,0.30
2024-02-19T03:39:02.323Z,0.30
2024-02-19T03:41:05.747Z,0.30
2024-02-19T03:43:07.490Z,0.57
2024-02-19T03:45:09.696Z,0.35
2024-02-19T03:47:11.483Z,0.30
2024-02-19T03:49:13.240Z,0.30
2024-02-19T03:51:14.740Z,0.35
2024-02-19T03:53:16.248Z,0.32
2024-02-19T03:55:17.735Z,0.35
2024-02-19T03:57:19.485Z,0.30
2024-02-19T03:59:23.625Z,0.35
2024-02-19T04:01:25.463Z,0.30
2024-02-19T04:03:27.046Z,0.30
2024-02-19T04:05:28.507Z,0.30
2024-02-19T04:07:30.280Z,0.30
2024-02-19T04:09:31.869Z,0.30
2024-02-19T04:11:33.402Z,0.30
2024-02-19T04:13:34.876Z,0.30
2024-02-19T04:15:36.370Z,0.40
2024-02-19T04:17:38.000Z,0.40
2024-02-19T04:19:39.711Z,0.32
2024-02-19T04:21:45.272Z,0.30
2024-02-19T04:23:46.929Z,0.30
2024-02-19T04:25:48.871Z,0.30
2024-02-19T04:27:50.552Z,0.28
2024-02-19T04:29:52.035Z,0.20
2024-02-19T04:31:53.567Z,0.30
2024-02-19T04:33:55.197Z,0.45
2024-02-19T04:35:56.746Z,0.30
2024-02-19T04:37:58.181Z,0.30
2024-02-19T04:39:59.646Z,0.28
2024-02-19T04:42:02.624Z,0.32
2024-02-19T04:44:04.193Z,0.30
2024-02-19T04:46:06.331Z,0.40
2024-02-19T04:48:08.524Z,0.30
2024-02-19T04:50:10.378Z,0.30
2024-02-19T04:52:12.033Z,0.35
2024-02-19T04:54:13.539Z,0.30
2024-02-19T04:56:16.172Z,0.30
2024-02-19T04:58:17.811Z,0.20
2024-02-19T05:00:19.837Z,0.43
2024-02-19T05:02:21.381Z,0.40
2024-02-19T05:04:24.492Z,0.40
2024-02-19T05:06:26.045Z,0.40
2024-02-19T05:08:27.656Z,0.40
2024-02-19T05:10:29.148Z,0.30
2024-02-19T05:12:30.641Z,0.40
2024-02-19T05:14:32.139Z,0.38
2024-02-19T05:16:33.614Z,0.30
2024-02-19T05:18:35.212Z,0.30
2024-02-19T05:20:36.917Z,0.30
2024-02-19T05:22:38.640Z,0.47
2024-02-19T05:24:43.021Z,0.40
2024-02-19T05:26:44.867Z,0.30
2024-02-19T05:28:46.362Z,0.40
2024-02-19T05:30:47.791Z,0.30
2024-02-19T05:32:49.325Z,0.40
2024-02-19T05:34:50.835Z,0.30
2024-02-19T05:36:52.432Z,0.35
2024-02-19T05:38:54.061Z,0.43
2024-02-19T05:40:55.593Z,0.30
2024-02-19T05:42:57.037Z,0.40
2024-02-19T05:44:58.505Z,0.40
2024-02-19T05:46:59.961Z,0.50
2024-02-19T05:49:01.639Z,0.30
2024-02-19T05:51:04.712Z,0.30
2024-02-19T05:53:06.265Z,0.30
2024-02-19T05:55:10.347Z,0.30
2024-02-19T05:57:11.841Z,0.50
2024-02-19T05:59:13.315Z,0.30
2024-02-19T06:01:15.029Z,0.40
2024-02-19T06:03:16.473Z,0.40
2024-02-19T06:05:19.420Z,0.40
2024-02-19T06:07:21.095Z,0.40
2024-02-19T06:09:22.668Z,0.40
2024-02-19T06:11:24.194Z,0.30
2024-02-19T06:13:26.370Z,0.32
2024-02-19T06:15:28.829Z,0.40
2024-02-19T06:17:30.460Z,0.40
2024-02-19T06:19:32.083Z,0.40
2024-02-19T06:21:33.603Z,0.30
2024-02-19T06:23:35.175Z,0.35
2024-02-19T06:25:36.634Z,0.40
2024-02-19T06:27:38.386Z,0.40
2024-02-19T06:29:39.912Z,0.50
2024-02-19T06:31:43.421Z,0.40
2024-02-19T06:33:44.984Z,0.40
2024-02-19T06:35:46.661Z,0.45
2024-02-19T06:37:49.261Z,0.50
2024-02-19T06:39:51.036Z,0.60
2024-02-19T06:41:52.481Z,0.45
2024-02-19T06:43:53.929Z,0.40
2024-02-19T06:45:55.396Z,0.50
2024-02-19T06:47:56.959Z,0.40
2024-02-19T06:49:58.636Z,0.50
2024-02-19T06:52:00.228Z,0.50
2024-02-19T06:54:01.721Z,0.40
2024-02-19T06:56:03.326Z,0.47
2024-02-19T06:58:04.798Z,0.47
2024-02-19T07:00:07.002Z,0.50
2024-02-19T07:02:09.069Z,0.40
2024-02-19T07:04:12.497Z,0.30
2024-02-19T07:06:14.157Z,0.60
2024-02-19T07:08:15.860Z,0.50
2024-02-19T07:10:18.954Z,0.50
2024-02-19T07:12:20.476Z,0.50
2024-02-19T07:14:21.924Z,0.60
2024-02-19T07:16:23.716Z,0.40
2024-02-19T07:18:26.218Z,0.52
2024-02-19T07:20:27.852Z,0.60
2024-02-19T07:22:29.580Z,0.40
2024-02-19T07:24:33.936Z,0.40
2024-02-19T07:26:35.506Z,0.40
2024-02-19T07:28:36.974Z,0.60
2024-02-19T07:30:39.391Z,0.50
2024-02-19T07:32:41.011Z,0.40
2024-02-19T07:34:44.478Z,0.40
2024-02-19T07:36:46.955Z,0.40
2024-02-19T07:38:48.531Z,0.40
2024-02-19T07:40:50.068Z,0.50
2024-02-19T07:42:51.582Z,0.57
2024-02-19T07:44:53.055Z,0.50
2024-02-19T07:46:54.791Z,0.52
2024-02-19T07:48:56.557Z,0.50
2024-02-19T07:50:58.388Z,0.50
2024-02-19T07:53:00.039Z,0.40
2024-02-19T07:55:01.654Z,0.32
2024-02-19T07:57:03.276Z,0.43
2024-02-19T07:59:04.796Z,0.40
2024-02-19T08:01:06.699Z,0.40
2024-02-19T08:05:15.533Z,0.40
2024-02-19T08:07:17.172Z,0.50
2024-02-19T08:09:19.450Z,0.50
2024-02-19T08:11:22.331Z,0.50
2024-02-19T08:13:23.951Z,0.40
2024-02-19T08:17:31.997Z,0.50
2024-02-19T08:19:34.440Z,0.50
2024-02-19T08:21:36.006Z,0.40
2024-02-19T08:23:37.454Z,0.50
2024-02-19T08:25:39.221Z,0.40
2024-02-19T08:27:40.839Z,0.50
2024-02-19T08:29:42.347Z,0.50
2024-02-19T08:31:44.408Z,0.43
2024-02-19T08:33:46.066Z,0.60
2024-02-19T08:35:47.725Z,0.52
2024-02-19T08:37:49.236Z,0.40
2024-02-19T08:43:53.782Z,0.40
2024-02-19T08:45:55.456Z,0.50
2024-02-19T08:47:57.131Z,0.38
2024-02-19T08:49:58.742Z,0.50
2024-02-19T08:52:00.505Z,0.30
2024-02-19T08:54:02.110Z,0.40
2024-02-19T08:56:04.105Z,0.40
2024-02-19T08:58:07.256Z,0.47
2024-02-19T09:00:11.109Z,0.30
2024-02-19T09:02:13.645Z,0.30
2024-02-19T09:04:15.325Z,0.30
2024-02-19T09:06:17.247Z,0.40
2024-02-19T09:08:19.398Z,0.40
2024-02-19T09:10:20.941Z,0.40
2024-02-19T09:12:24.481Z,0.32
2024-02-19T09:14:29.216Z,0.30
2024-02-19T09:16:31.119Z,0.40
2024-02-19T09:18:32.909Z,0.50
2024-02-19T09:20:34.677Z,0.45
2024-02-19T09:22:36.186Z,0.30
2024-02-19T09:24:37.659Z,0.30
2024-02-19T09:26:39.223Z,0.30
2024-02-19T09:28:40.912Z,0.20
2024-02-19T09:30:42.410Z,0.40
2024-02-19T09:32:44.055Z,0.32
2024-02-19T09:34:45.875Z,0.30
2024-02-19T09:36:47.528Z,0.30
2024-02-19T09:38:49.362Z,0.30
2024-02-19T09:40:51.237Z,0.25
2024-02-19T09:42:53.091Z,0.30
2024-02-19T09:44:54.895Z,0.20
2024-02-19T09:47:00.026Z,0.40
2024-02-19T09:49:01.993Z,0.30
2024-02-19T09:51:05.982Z,0.20
2024-02-19T09:53:10.308Z,0.20
2024-02-19T09:55:12.069Z,0.30
2024-02-19T09:57:14.062Z,0.25
2024-02-19T09:59:16.902Z,0.20
2024-02-19T10:01:18.901Z,0.20
2024-02-19T10:03:20.598Z,0.30
2024-02-19T10:05:22.331Z,0.30
2024-02-19T10:07:24.139Z,0.20
2024-02-19T10:09:25.774Z,0.30
2024-02-19T10:11:27.474Z,0.20
2024-02-19T10:13:29.060Z,0.20
2024-02-19T10:15:30.540Z,0.25
2024-02-19T10:17:33.084Z,0.22
2024-02-19T10:19:34.790Z,0.30
2024-02-19T10:21:36.403Z,0.10
2024-02-19T10:23:39.278Z,0.30
2024-02-19T10:25:40.831Z,0.30
2024-02-19T10:27:44.175Z,0.30
2024-02-19T10:29:47.372Z,0.15
2024-02-19T10:31:49.163Z,0.20
2024-02-19T10:33:50.898Z,0.30
2024-02-19T10:35:52.736Z,0.20
2024-02-19T10:37:56.681Z,0.30
2024-02-19T10:39:58.346Z,0.15
2024-02-19T10:42:00.390Z,0.20
2024-02-19T10:44:02.046Z,0.20
2024-02-19T10:46:05.795Z,0.20
2024-02-19T10:48:08.484Z,0.20
2024-02-19T10:50:16.051Z,0.20
2024-02-19T10:52:19.085Z,0.20
2024-02-19T10:54:20.742Z,0.20
2024-02-19T10:56:22.537Z,0.10
2024-02-19T11:02:37.489Z,0.20
2024-02-19T11:04:39.935Z,0.20
2024-02-19T11:06:45.713Z,0.20
2024-02-19T11:08:51.501Z,0.10
2024-02-19T11:10:55.647Z,0.25
2024-02-19T11:13:04.427Z,0.20
2024-02-19T11:15:15.378Z,0.10
2024-02-19T11:17:17.493Z,0.20
2024-02-19T11:19:19.410Z,0.22
2024-02-19T11:21:21.266Z,0.20
2024-02-19T11:23:24.057Z,0.20
2024-02-19T11:25:25.747Z,0.20
2024-02-19T11:27:27.536Z,0.20
2024-02-19T11:29:36.307Z,0.30
2024-02-19T11:31:42.530Z,0.17
2024-02-19T11:33:48.371Z,0.20
2024-02-19T11:35:49.903Z,0.25
2024-02-19T11:37:51.456Z,0.17
2024-02-19T11:39:53.392Z,0.20
2024-02-19T11:41:55.147Z,0.22
2024-02-19T11:43:56.660Z,0.28
2024-02-19T11:45:59.783Z,0.10
2024-02-19T11:48:01.805Z,0.20
2024-02-19T11:50:06.026Z,0.20
2024-02-19T11:52:12.090Z,0.20
2024-02-19T11:54:16.711Z,0.20
2024-02-19T11:56:20.956Z,0.10
2024-02-19T11:58:27.527Z,0.30
2024-02-19T12:00:32.670Z,0.10
2024-02-19T12:02:42.362Z,0.20
2024-02-19T12:04:44.293Z,0.20
2024-02-19T12:06:46.148Z,0.10
2024-02-19T12:08:47.661Z,0.10
2024-02-19T12:10:49.186Z,0.20
2024-02-19T12:12:52.248Z,0.10
2024-02-19T12:14:54.208Z,0.20
2024-02-19T12:16:56.554Z,0.10
2024-02-19T12:18:59.703Z,0.10
2024-02-19T12:21:04.304Z,0.17
2024-02-19T12:23:06.146Z,0.10
2024-02-19T12:25:08.333Z,0.20
2024-02-19T12:27:09.818Z,0.10
2024-02-19T12:29:11.703Z,0.10
2024-02-19T12:31:13.340Z,0.30
2024-02-19T12:33:14.957Z,0.20
2024-02-19T12:35:20.758Z,0.20
2024-02-19T12:37:22.762Z,0.20
2024-02-19T12:39:26.812Z,0.20
2024-02-19T12:41:28.775Z,0.15
2024-02-19T12:43:30.282Z,0.20
2024-02-19T12:45:32.038Z,0.10
2024-02-19T12:47:33.856Z,0.20
2024-02-19T12:49:39.163Z,0.20
2024-02-19T12:51:43.179Z,0.20
2024-02-19T12:53:45.085Z,0.10
2024-02-19T12:55:46.601Z,0.28
2024-02-19T12:57:48.114Z,0.20
2024-02-19T12:59:49.911Z,0.10
2024-02-19T13:01:52.329Z,0.15
2024-02-19T13:03:53.906Z,0.20
2024-02-19T13:05:55.448Z,0.20
2024-02-19T13:07:57.294Z,0.20
2024-02-19T13:09:59.748Z,0.13
2024-02-19T13:12:01.563Z,0.20
2024-02-19T13:14:03.994Z,0.10
2024-02-19T13:16:09.210Z,0.15
2024-02-19T13:18:11.812Z,0.10
2024-02-19T13:20:15.705Z,0.13
2024-02-19T13:22:17.620Z,0.28
2024-02-19T13:24:19.182Z,0.17
2024-02-19T13:26:20.769Z,0.20
2024-02-19T13:28:22.854Z,0.10
2024-02-19T13:30:24.632Z,0.10
2024-02-19T13:32:26.269Z,0.13
2024-02-19T13:34:28.196Z,0.20
2024-02-19T13:36:31.765Z,0.10
2024-02-19T13:38:33.247Z,0.20
2024-02-19T13:40:34.831Z,0.20
2024-02-19T13:42:36.813Z,0.22
2024-02-19T13:44:39.683Z,0.20
2024-02-19T13:46:45.477Z,0.20
2024-02-19T13:48:53.807Z,0.20
2024-02-19T13:50:59.348Z,0.15
2024-02-19T13:53:01.250Z,0.20
2024-02-19T13:55:03.747Z,0.30
2024-02-19T13:57:05.350Z,0.28
2024-02-19T13:59:08.818Z,0.20
2024-02-19T14:01:11.919Z,0.20
2024-02-19T14:03:13.743Z,0.20
2024-02-19T14:05:16.973Z,0.10
2024-02-19T14:07:18.661Z,0.10
2024-02-19T14:09:20.146Z,0.20
2024-02-19T14:11:22.397Z,0.20
2024-02-19T14:13:24.117Z,0.20
2024-02-19T14:15:25.943Z,0.22
2024-02-19T14:17:27.534Z,0.20
2024-02-19T14:19:29.307Z,0.20
2024-02-19T14:21:30.927Z,0.10
2024-02-19T14:23:32.463Z,0.10
2024-02-19T14:25:39.492Z,0.20
2024-02-19T14:27:43.326Z,0.20
2024-02-19T14:29:44.996Z,0.20
2024-02-19T14:31:46.713Z,0.25
2024-02-19T14:33:51.483Z,0.20
2024-02-19T14:35:53.655Z,0.17
2024-02-19T14:37:55.480Z,0.20
2024-02-19T14:39:57.141Z,0.25
2024-02-19T14:41:58.720Z,0.20
2024-02-19T14:44:00.194Z,0.20
2024-02-19T14:46:05.000Z,0.30
2024-02-19T14:48:09.109Z,0.20
2024-02-19T14:50:11.515Z,0.20
2024-02-19T14:52:13.217Z,0.20
2024-02-19T14:54:14.808Z,0.10
2024-02-19T14:56:16.428Z,0.20
2024-02-19T14:58:18.020Z,0.20
2024-02-19T15:00:22.879Z,0.20
2024-02-19T15:02:24.680Z,0.20
2024-02-19T15:04:26.283Z,0.10
2024-02-19T15:06:28.300Z,0.20
2024-02-19T15:08:29.824Z,0.20
2024-02-19T15:10:33.753Z,0.30
2024-02-19T15:12:36.923Z,0.28
2024-02-19T15:14:38.681Z,0.10
2024-02-19T15:16:40.337Z,0.20
2024-02-19T15:18:42.329Z,0.20
2024-02-19T15:20:44.523Z,0.22
2024-02-19T15:22:47.676Z,0.20
2024-02-19T15:24:49.327Z,0.25
2024-02-19T15:26:50.832Z,0.20
2024-02-19T15:28:52.298Z,0.20
2024-02-19T15:30:53.783Z,0.10
2024-02-19T15:32:55.392Z,0.20
2024-02-19T15:34:57.012Z,0.25
2024-02-19T15:36:58.645Z,0.10
2024-02-19T15:39:00.140Z,0.20
2024-02-19T15:41:04.509Z,0.20
2024-02-19T15:43:06.005Z,0.20
2024-02-19T15:45:07.934Z,0.15
2024-02-19T15:47:09.709Z,0.20
2024-02-19T15:49:11.341Z,0.20
2024-02-19T15:51:12.985Z,0.20
2024-02-19T15:53:24.566Z,0.20
2024-02-19T15:55:30.059Z,0.20
2024-02-19T15:57:31.913Z,0.30
2024-02-19T15:59:33.434Z,0.20
2024-02-19T16:01:36.472Z,0.20
2024-02-19T16:03:38.258Z,0.10
2024-02-19T16:05:39.789Z,0.17
2024-02-19T16:07:41.505Z,0.30
2024-02-19T16:09:43.377Z,0.20
2024-02-19T16:11:45.220Z,0.20
2024-02-19T16:13:46.806Z,0.20
2024-02-19T16:15:48.405Z,0.20
2024-02-19T16:17:50.012Z,0.20
2024-02-19T16:19:54.475Z,0.30
2024-02-19T16:21:56.171Z,0.20
2024-02-19T16:23:57.871Z,0.30
2024-02-19T16:26:00.138Z,0.20
2024-02-19T16:28:01.654Z,0.10
2024-02-19T16:30:06.245Z,0.20
2024-02-19T16:32:09.042Z,0.20
2024-02-19T16:34:10.812Z,0.20
2024-02-19T16:36:12.536Z,0.20
2024-02-19T16:38:15.273Z,0.20
2024-02-19T16:40:16.913Z,0.25
2024-02-19T16:42:19.722Z,0.20
2024-02-19T16:44:21.173Z,0.20
2024-02-19T16:46:26.248Z,0.20
2024-02-19T16:48:28.325Z,0.20
2024-02-19T16:50:29.851Z,0.20
2024-02-19T16:52:31.450Z,0.20
2024-02-19T16:54:33.101Z,0.30
2024-02-19T16:56:34.579Z,0.30
2024-02-19T16:58:36.440Z,0.20
2024-02-19T17:00:38.178Z,0.20
2024-02-19T17:02:39.776Z,0.30
2024-02-19T17:04:41.897Z,0.17
2024-02-19T17:06:45.186Z,0.20
2024-02-19T17:08:46.984Z,0.30
2024-02-19T17:10:48.545Z,0.25
2024-02-19T17:12:50.054Z,0.20
2024-02-19T17:14:51.731Z,0.20
2024-02-19T17:16:53.990Z,0.30
2024-02-19T17:18:55.534Z,0.30
2024-02-19T17:20:57.477Z,0.20
2024-02-19T17:22:59.349Z,0.17
2024-02-19T17:25:01.030Z,0.10
2024-02-19T17:27:04.119Z,0.20
2024-02-19T17:29:08.637Z,0.20
2024-02-19T17:31:12.050Z,0.20
2024-02-19T17:33:13.800Z,0.25
2024-02-19T17:35:15.568Z,0.20
2024-02-19T17:37:18.162Z,0.30
2024-02-19T17:39:24.481Z,0.30
2024-02-19T17:41:25.998Z,0.20
2024-02-19T17:43:27.544Z,0.20
2024-02-19T17:45:29.064Z,0.30
2024-02-19T17:47:30.719Z,0.20
2024-02-19T17:49:32.440Z,0.30
2024-02-19T17:51:34.012Z,0.28
2024-02-19T17:53:35.479Z,0.28
2024-02-19T17:55:37.153Z,0.20
2024-02-19T17:57:40.139Z,0.20
2024-02-19T17:59:42.116Z,0.20
2024-02-19T18:01:43.962Z,0.10
2024-02-19T18:03:45.853Z,0.20
2024-02-19T18:05:47.502Z,0.30
2024-02-19T18:07:49.065Z,0.20
2024-02-19T18:09:50.605Z,0.20
2024-02-19T18:11:52.200Z,0.20
2024-02-19T18:13:57.547Z,0.20
2024-02-19T18:15:59.157Z,0.20
2024-02-19T18:18:04.169Z,0.20
2024-02-19T18:20:07.883Z,0.20
2024-02-19T18:22:10.807Z,0.20
2024-02-19T18:24:12.385Z,0.20
2024-02-19T18:26:14.281Z,0.20
2024-02-19T18:28:16.585Z,0.20
2024-02-19T18:30:18.745Z,0.20
2024-02-19T18:32:20.750Z,0.20
2024-02-19T18:34:22.968Z,0.20
2024-02-19T18:36:24.531Z,0.30
2024-02-19T18:38:26.279Z,0.20
2024-02-19T18:40:27.895Z,0.25
2024-02-19T18:42:29.378Z,0.13
2024-02-19T18:44:31.117Z,0.20
2024-02-19T18:46:33.211Z,0.20
2024-02-19T18:48:35.887Z,0.20
2024-02-19T18:50:38.224Z,0.20
2024-02-19T18:52:39.792Z,0.20
2024-02-19T18:54:41.440Z,0.20
2024-02-19T18:56:43.387Z,0.20
2024-02-19T18:58:45.048Z,0.20
2024-02-19T19:00:46.632Z,0.20
2024-02-19T19:02:48.537Z,0.20
2024-02-19T19:04:50.122Z,0.20
2024-02-19T19:06:51.645Z,0.20
2024-02-19T19:08:53.183Z,0.30
2024-02-19T19:10:54.725Z,0.10
2024-02-19T19:12:56.460Z,0.20
2024-02-19T19:14:58.320Z,0.30
2024-02-19T19:16:59.875Z,0.20
2024-02-19T19:19:04.576Z,0.30
2024-02-19T19:21:07.288Z,0.30
2024-02-19T19:23:09.277Z,0.28
2024-02-19T19:25:11.504Z,0.22
2024-02-19T19:27:13.502Z,0.20
2024-02-19T19:29:15.010Z,0.30
2024-02-19T19:31:16.660Z,0.20
2024-02-19T19:33:19.234Z,0.20
2024-02-19T19:35:24.528Z,0.30
2024-02-19T19:37:26.302Z,0.20
2024-02-19T19:39:27.917Z,0.20
2024-02-19T19:41:29.391Z,0.30
2024-02-19T19:43:31.227Z,0.30
2024-02-19T19:45:33.256Z,0.30
2024-02-19T19:47:35.591Z,0.10
2024-02-19T19:49:37.792Z,0.20
2024-02-19T19:51:39.549Z,0.30
2024-02-19T19:53:41.092Z,0.28
2024-02-19T19:55:42.733Z,0.20
2024-02-19T19:57:51.829Z,0.30
2024-02-19T19:59:53.614Z,0.30
2024-02-19T20:01:57.159Z,0.20
2024-02-19T20:03:59.569Z,0.20
2024-02-19T20:06:01.390Z,0.30
2024-02-19T20:08:03.549Z,0.30
2024-02-19T20:10:07.595Z,0.30
2024-02-19T20:12:09.554Z,0.20
2024-02-19T20:14:11.046Z,0.20
2024-02-19T20:16:12.813Z,0.30
2024-02-19T20:18:15.223Z,0.30
2024-02-19T20:20:16.887Z,0.40
2024-02-19T20:22:18.511Z,0.20
2024-02-19T20:24:20.032Z,0.32
2024-02-19T20:26:21.584Z,0.30
2024-02-19T20:28:23.066Z,0.28
2024-02-19T20:30:24.770Z,0.20
2024-02-19T20:32:26.827Z,0.20
2024-02-19T20:34:34.458Z,0.20
2024-02-19T20:36:38.734Z,0.25
2024-02-19T20:38:41.440Z,0.30
2024-02-19T20:40:43.201Z,0.30
2024-02-19T20:42:46.429Z,0.30
2024-02-19T20:44:48.100Z,0.30
2024-02-19T20:46:49.613Z,0.22
2024-02-19T20:48:51.111Z,0.38
2024-02-19T20:50:52.758Z,0.20
2024-02-19T20:52:57.378Z,0.20
2024-02-19T20:54:58.892Z,0.20
2024-02-19T20:57:00.533Z,0.30
2024-02-19T20:59:02.055Z,0.20
2024-02-19T21:01:03.698Z,0.30
2024-02-19T21:03:06.085Z,0.30
2024-02-19T21:05:09.103Z,0.30
2024-02-19T21:07:10.757Z,0.30
2024-02-19T21:09:12.240Z,0.30
2024-02-19T21:11:15.525Z,0.22
2024-02-19T21:13:17.249Z,0.30
2024-02-19T21:15:19.267Z,0.30
2024-02-19T21:17:20.760Z,0.30
2024-02-19T21:19:23.462Z,0.28
2024-02-19T21:23:31.569Z,0.30
2024-02-19T21:25:34.956Z,0.20
2024-02-19T21:27:36.590Z,0.35
2024-02-19T21:33:51.910Z,0.32
2024-02-19T21:35:54.737Z,0.40
2024-02-19T21:37:57.737Z,0.30
2024-02-19T21:39:59.224Z,0.40
2024-02-19T21:46:13.566Z,0.40
2024-02-19T21:48:15.111Z,0.30
2024-02-19T21:50:16.717Z,0.30
2024-02-19T21:52:18.294Z,0.38
2024-02-19T21:58:33.465Z,0.55
2024-02-19T22:00:35.009Z,0.40
2024-02-19T22:02:37.210Z,0.35
2024-02-19T22:04:40.311Z,0.40
2024-02-19T22:06:41.910Z,0.30
2024-02-19T22:08:43.619Z,0.45
2024-02-19T22:10:45.674Z,0.30
2024-02-19T22:12:47.400Z,0.50
2024-02-19T22:14:48.918Z,0.40
2024-02-19T22:23:05.202Z,0.40
2024-02-19T22:25:08.325Z,0.40
2024-02-19T22:27:10.383Z,0.40
2024-02-19T22:29:12.652Z,0.40
2024-02-19T22:31:14.112Z,0.40
2024-02-19T22:33:15.701Z,0.40
2024-02-19T22:35:17.379Z,0.40
2024-02-19T22:37:19.137Z,0.47
2024-02-19T22:39:20.619Z,0.40
2024-02-19T22:41:22.038Z,0.30
2024-02-19T22:43:24.034Z,0.32
2024-02-19T22:45:25.624Z,0.50
2024-02-19T22:47:27.193Z,0.22
2024-02-19T22:49:28.900Z,0.32
2024-02-19T22:51:30.473Z,0.30
2024-02-19T22:53:32.087Z,0.40
2024-02-19T22:55:33.626Z,0.45
2024-02-19T22:57:35.366Z,0.40
2024-02-19T22:59:37.329Z,0.40
2024-02-19T23:01:38.825Z,0.38
2024-02-19T23:05:46.679Z,0.40
2024-02-19T23:07:54.746Z,0.30
2024-02-19T23:09:56.244Z,0.40
2024-02-19T23:11:57.831Z,0.40
2024-02-19T23:13:59.308Z,0.43
2024-02-19T23:16:01.178Z,0.45
2024-02-19T23:18:03.740Z,0.40
2024-02-19T23:20:07.207Z,0.40
2024-02-19T23:22:08.857Z,0.40
2024-02-19T23:24:10.436Z,0.40
2024-02-19T23:26:11.929Z,0.40
2024-02-19T23:28:13.420Z,0.30
2024-02-19T23:30:14.972Z,0.43
2024-02-19T23:32:16.468Z,0.40
2024-02-19T23:34:18.222Z,0.50
2024-02-19T23:36:19.949Z,0.50
2024-02-19T23:38:23.414Z,0.30
2024-02-19T23:40:25.461Z,0.40
2024-02-19T23:42:27.305Z,0.35
2024-02-19T23:44:28.791Z,0.47
2024-02-19T23:46:30.487Z,0.32
2024-02-19T23:48:32.264Z,0.30
2024-02-19T23:50:33.808Z,0.40
2024-02-19T23:52:35.844Z,0.50
2024-02-19T23:54:41.055Z,0.50
2024-02-19T23:56:42.727Z,0.50
2024-02-19T23:58:44.484Z,0.50
